Tuesday, January 22, 2019, 4:23 PM EST
Back to Local

KJFK, Kennedy International Airport

Location: Rosedale, NY, United States Lat: 40.633
Local Time: 4:23 PM EST (21:23 GMT) Lon: -73.767
Time Zone: US/Eastern Elev: 13 ft

Show me the last for .
Show Decoded

2019-01-22 15:51 METAR KJFK 222051Z 01006KT 10SM FEW150 BKN250 M01/M18 A3063 RMK AO2 SLP372
                 T10111178 56005 =
2019-01-22 14:51 METAR KJFK 221951Z VRB04KT 10SM FEW150 SCT250 M01/M18 A3063 RMK AO2 SLP372
                 T10061178 $ =
2019-01-22 13:51 METAR KJFK 221851Z 26006KT 10SM FEW150 SCT250 M02/M18 A3064 RMK AO2 SLP374
                 T10171178 $ =
2019-01-22 12:51 METAR KJFK 221751Z 28007KT 10SM FEW180 SCT250 M03/M17 A3065 RMK AO2 SLP377
                 T10281172 11028 21094 58009 $ =
2019-01-22 11:51 METAR KJFK 221651Z 30011KT 10SM SCT250 M04/M18 A3066 RMK AO2 SLP381 T10391178 $
                 =
2019-01-22 10:51 METAR KJFK 221551Z 31009KT 10SM FEW250 M05/M18 A3067 RMK AO2 SLP384 T10501178 $
                 =
2019-01-22 09:51 METAR KJFK 221451Z 31011KT 10SM FEW250 M07/M17 A3067 RMK AO2 SLP385 T10671167
                 51025 $ =
2019-01-22 08:51 METAR KJFK 221351Z 30011KT 10SM CLR M08/M17 A3066 RMK AO2 SLP381 T10781167 $ =
2019-01-22 07:51 METAR KJFK 221251Z 33009KT 10SM CLR M09/M17 A3062 RMK AO2 SLP369 T10941167 $ =
2019-01-22 06:51 METAR KJFK 221151Z 30014G23KT 10SM FEW037 M09/M17 A3060 RMK AO2 PK WND
                 30029/1102 SLP360 T10941167 11094 21100 51034 $ =
2019-01-22 05:51 METAR KJFK 221051Z 29015G22KT 10SM CLR M09/M17 A3059 RMK AO2 SLP358 T10941167 $
                 =
2019-01-22 04:51 METAR KJFK 220951Z 29018G21KT 10SM CLR M09/M17 A3055 RMK AO2 SLP343 T10941167 $
                 =
2019-01-22 03:51 METAR KJFK 220851Z 29011G19KT 10SM CLR M10/M17 A3050 RMK AO2 SLP326 T11001167
                 53022 $ =
2019-01-22 02:51 METAR KJFK 220751Z 30017G22KT 10SM CLR M10/M17 A3047 RMK AO2 SLP315 T11001172 $
                 =
2019-01-22 01:51 METAR KJFK 220651Z 30016G25KT 10SM CLR M10/M17 A3045 RMK AO2 PK WND 29026/0642
                 SLP311 T11001172 $ =
2019-01-22 00:51 METAR KJFK 220551Z 31016KT 10SM CLR M10/M18 A3043 RMK AO2 PK WND 30030/0529
                 SLP304 T11001178 11100 21117 51024 $ =
2019-01-21 23:51 METAR KJFK 220451Z 30023G29KT 10SM FEW045 M10/M18 A3041 RMK AO2 PK WND
                 29029/0446 SLP296 T11001178 410941150 =
2019-01-21 22:51 METAR KJFK 220351Z 30022G30KT 10SM FEW045 M11/M18 A3039 RMK AO2 PK WND
                 30040/0259 SLP289 T11061183 =
2019-01-21 21:51 METAR KJFK 220251Z 30028G38KT 10SM FEW045 M11/M19 A3036 RMK AO2 PK WND
                 30038/0251 SLP280 T11061189 51037 =
2019-01-21 20:51 METAR KJFK 220151Z 31023G34KT 10SM CLR M11/M20 A3033 RMK AO2 PK WND 29042/0125
                 SLP270 T11111200 =
2019-01-21 19:51 METAR KJFK 220051Z 30025G38KT 10SM FEW045 M12/M21 A3029 RMK AO2 PK WND
                 31040/0004 SLP257 T11171211 =
2019-01-21 18:51 METAR KJFK 212351Z 31026G40KT 10SM FEW049 M12/M22 A3025 RMK AO2 PK WND
                 31040/2345 SLP243 T11171217 11094 21117 53042 =
2019-01-21 17:51 METAR KJFK 212251Z 30024G34KT 10SM FEW049 FEW250 M11/M22 A3021 RMK AO2 PK WND
                 31037/2153 SLP228 T11061217 =
2019-01-21 16:51 METAR KJFK 212151Z 30020G29KT 10SM FEW049 FEW250 M10/M21 A3015 RMK AO2 PK WND
                 30041/2056 SLP210 T11001206 =

Support USWX by starting your Amazon purchase here.